Terminal Aerodrome Forecast
Issued by NWS Pueblo, CO

Current Version | Previous Version | Text Only | Print | Product List | Glossary On
Versions: 1 2 3 4 5 6 7 8 9 10 11 12 13 14 15 16 17 18 19 20 21 22 23 24 25 26 27 28 29 30 31 32 33 34 35 36 37 38 39 40
000
FTUS45 KPUB 182325
TAFPUB
TAF
KPUB 182325Z 1900/1924 VRB06KT P6SM BKN250
     FM190200 25012KT P6SM FEW250
     FM191300 04015KT P6SM SCT200
     FM191600 09015KT P6SM BKN020
     FM191800 16015G25KT P6SM BKN020
     FM192300 17015G25KT P6SM FEW020=

USA.gov is the U.S. government's official web portal to all federal, state and local government web resources and services.